createdAt,value
2022-12-19T00:01:06.801Z,102907.69
2022-12-19T00:03:36.523Z,102913.63
2022-12-19T00:06:05.339Z,102920.72
2022-12-19T00:08:34.641Z,102911.44
2022-12-19T00:11:03.660Z,102933.63
2022-12-19T00:13:40.124Z,102931.13
2022-12-19T00:16:11.823Z,102932.56
2022-12-19T00:18:42.382Z,102925.75
2022-12-19T00:21:12.949Z,102948.72
2022-12-19T00:23:41.367Z,102949.38
2022-12-19T00:26:11.963Z,102944.16
2022-12-19T00:28:39.993Z,102945.00
2022-12-19T00:31:08.303Z,102946.56
2022-12-19T00:33:36.436Z,102950.66
2022-12-19T00:36:12.544Z,102956.38
2022-12-19T00:38:43.156Z,102946.56
2022-12-19T00:41:13.096Z,102949.28
2022-12-19T00:43:41.261Z,102945.59
2022-12-19T00:46:11.022Z,102946.28
2022-12-19T00:48:39.220Z,102953.00
2022-12-19T00:51:12.550Z,102930.94
2022-12-19T00:53:40.850Z,102929.94
2022-12-19T00:56:17.157Z,102925.72
2022-12-19T00:58:47.314Z,102940.19
2022-12-19T01:01:17.861Z,102940.03
2022-12-19T01:04:18.769Z,102938.53
2022-12-19T01:06:36.008Z,102936.16
2022-12-19T01:09:04.262Z,102956.50
2022-12-19T01:11:49.494Z,102955.22
2022-12-19T01:14:22.560Z,102952.75
2022-12-19T01:16:51.486Z,102944.06
2022-12-19T01:19:19.609Z,102955.97
2022-12-19T01:21:48.938Z,102951.59
2022-12-19T01:24:18.937Z,102951.41
2022-12-19T01:26:47.341Z,102957.09
2022-12-19T01:29:15.272Z,102966.41
2022-12-19T01:31:43.287Z,102970.59
2022-12-19T01:34:11.347Z,102973.47
2022-12-19T01:36:40.035Z,102979.09
2022-12-19T01:39:09.748Z,102981.66
2022-12-19T01:41:38.591Z,102979.03
2022-12-19T01:44:08.270Z,102980.91
2022-12-19T01:46:38.340Z,102982.66
2022-12-19T01:49:11.993Z,102972.34
2022-12-19T01:51:45.156Z,102977.47
2022-12-19T01:54:18.742Z,102972.19
2022-12-19T01:56:51.277Z,102980.84
2022-12-19T01:59:22.015Z,102981.94
2022-12-19T02:01:56.544Z,102988.66
2022-12-19T02:04:25.307Z,102986.25
2022-12-19T02:06:55.094Z,102978.38
2022-12-19T02:09:24.412Z,102981.75
2022-12-19T02:11:53.044Z,102979.22
2022-12-19T02:14:21.589Z,102990.09
2022-12-19T02:16:58.037Z,103003.38
2022-12-19T02:20:06.865Z,102982.91
2022-12-19T02:22:51.143Z,102993.47
2022-12-19T02:25:44.167Z,102997.53
2022-12-19T02:28:36.377Z,102996.56
2022-12-19T02:31:17.459Z,103001.25
2022-12-19T02:33:51.353Z,103003.47
2022-12-19T02:36:27.594Z,103002.97
2022-12-19T02:39:00.640Z,103005.56
2022-12-19T02:41:43.337Z,103007.31
2022-12-19T02:44:14.346Z,103006.69
2022-12-19T02:46:45.838Z,103010.06
2022-12-19T02:49:22.445Z,102995.00
2022-12-19T02:51:59.183Z,102999.41
2022-12-19T02:54:27.144Z,103000.13
2022-12-19T02:57:02.058Z,103004.63
2022-12-19T02:59:43.590Z,103007.59
2022-12-19T03:02:25.491Z,102982.91
2022-12-19T03:05:00.724Z,103009.44
2022-12-19T03:07:36.734Z,103003.94
2022-12-19T03:10:16.612Z,103018.13
2022-12-19T03:12:50.496Z,103012.66
2022-12-19T03:15:19.892Z,103017.13
2022-12-19T03:17:50.103Z,103013.78
2022-12-19T03:20:26.459Z,103008.41
2022-12-19T03:22:54.554Z,103023.44
2022-12-19T03:25:24.364Z,103024.63
2022-12-19T03:27:54.924Z,103029.94
2022-12-19T03:30:23.148Z,103029.97
2022-12-19T03:32:54.158Z,103033.13
2022-12-19T03:35:24.344Z,103022.59
2022-12-19T03:37:54.393Z,103029.25
2022-12-19T03:40:25.938Z,103012.78
2022-12-19T03:43:09.668Z,103037.09
2022-12-19T03:45:48.371Z,103034.94
2022-12-19T03:48:23.708Z,103026.44
2022-12-19T03:51:00.612Z,103035.59
2022-12-19T03:53:38.207Z,103026.03
2022-12-19T03:56:14.020Z,103028.41
2022-12-19T03:58:48.014Z,103038.16
2022-12-19T04:01:16.556Z,103033.34
2022-12-19T04:03:46.255Z,103043.44
2022-12-19T04:06:16.150Z,103050.69
2022-12-19T04:08:45.100Z,103057.50
2022-12-19T04:11:19.690Z,103074.56
2022-12-19T04:13:53.370Z,103075.31
2022-12-19T04:16:28.925Z,103077.06
2022-12-19T04:19:04.574Z,103088.78
2022-12-19T04:21:36.140Z,103079.31
2022-12-19T04:24:11.282Z,103087.25
2022-12-19T04:26:41.722Z,103085.53
2022-12-19T04:29:13.207Z,103097.47
2022-12-19T04:31:41.562Z,103094.69
2022-12-19T04:34:10.934Z,103101.06
2022-12-19T04:36:39.021Z,103095.69
2022-12-19T04:39:06.997Z,103096.66
2022-12-19T04:41:34.908Z,103099.13
2022-12-19T04:44:02.838Z,103106.22
2022-12-19T04:46:30.825Z,103114.00
2022-12-19T04:48:58.785Z,103109.66
2022-12-19T04:51:28.061Z,103114.75
2022-12-19T04:53:56.029Z,103118.44
2022-12-19T04:56:23.992Z,103117.22
2022-12-19T04:58:57.694Z,103130.47
2022-12-19T05:01:25.804Z,103127.63
2022-12-19T05:03:56.625Z,103125.41
2022-12-19T05:06:28.034Z,103141.63
2022-12-19T05:08:56.219Z,103123.31
2022-12-19T05:11:24.187Z,103140.22
2022-12-19T05:13:52.121Z,103134.31
2022-12-19T05:16:20.535Z,103126.16
2022-12-19T05:18:48.525Z,103136.53
2022-12-19T05:21:16.505Z,103137.56
2022-12-19T05:23:45.814Z,103151.25
2022-12-19T05:26:14.048Z,103146.56
2022-12-19T05:28:42.412Z,103150.28
2022-12-19T05:31:12.698Z,103148.22
2022-12-19T05:33:41.534Z,103159.00
2022-12-19T05:36:10.606Z,103158.09
2022-12-19T05:38:39.036Z,103159.06
2022-12-19T05:41:17.635Z,103169.13
2022-12-19T05:43:46.431Z,103170.06
2022-12-19T05:46:14.394Z,103162.22
2022-12-19T05:48:42.536Z,103166.91
2022-12-19T05:51:10.806Z,103172.16
2022-12-19T05:53:39.191Z,103180.47
2022-12-19T05:56:08.876Z,103187.53
2022-12-19T05:58:39.179Z,103182.16
2022-12-19T06:01:09.338Z,103179.72
2022-12-19T06:03:37.667Z,103181.19
2022-12-19T06:06:06.724Z,103187.06
2022-12-19T06:08:35.336Z,103188.44
2022-12-19T06:11:05.432Z,103187.44
2022-12-19T06:13:33.747Z,103197.63
2022-12-19T06:16:04.823Z,103190.91
2022-12-19T06:18:33.271Z,103194.88
2022-12-19T06:21:02.504Z,103203.38
2022-12-19T06:23:31.694Z,103210.09
2022-12-19T06:26:00.413Z,103216.41
2022-12-19T06:28:29.904Z,103215.75
2022-12-19T06:30:58.236Z,103196.09
2022-12-19T06:33:28.818Z,103223.16
2022-12-19T06:35:59.844Z,103216.84
2022-12-19T06:38:28.620Z,103220.97
2022-12-19T06:41:14.476Z,103219.28
2022-12-19T06:43:42.412Z,103231.16
2022-12-19T06:46:10.896Z,103229.91
2022-12-19T06:48:40.378Z,103200.91
2022-12-19T06:51:08.519Z,103231.03
2022-12-19T06:53:36.570Z,103235.72
2022-12-19T06:56:05.515Z,103237.16
2022-12-19T06:58:34.899Z,103209.53
2022-12-19T07:01:03.034Z,103242.00
2022-12-19T07:03:36.364Z,103237.66
2022-12-19T07:06:06.477Z,103242.53
2022-12-19T07:08:34.632Z,103249.56
2022-12-19T07:11:02.617Z,103240.28
2022-12-19T07:13:30.712Z,103253.84
2022-12-19T07:16:03.710Z,103258.72
2022-12-19T07:18:35.327Z,103267.84
2022-12-19T07:21:03.803Z,103270.59
2022-12-19T07:23:33.438Z,103278.22
2022-12-19T07:26:01.597Z,103275.34
2022-12-19T07:28:29.586Z,103278.53
2022-12-19T07:30:57.534Z,103289.81
2022-12-19T07:33:25.452Z,103280.16
2022-12-19T07:35:53.469Z,103291.47
2022-12-19T07:38:21.450Z,103295.91
2022-12-19T07:40:50.784Z,103295.94
2022-12-19T07:43:18.753Z,103292.50
2022-12-19T07:45:46.697Z,103305.56
2022-12-19T07:48:14.730Z,103299.56
2022-12-19T07:50:42.730Z,103301.13
2022-12-19T07:53:10.641Z,103316.72
2022-12-19T07:55:38.559Z,103315.84
2022-12-19T07:58:09.569Z,103320.50
2022-12-19T08:00:37.516Z,103321.16
2022-12-19T08:03:05.518Z,103307.38
2022-12-19T08:05:35.972Z,103317.63
2022-12-19T08:08:05.022Z,103317.22
2022-12-19T08:10:32.960Z,103321.56
2022-12-19T08:13:00.882Z,103317.94
2022-12-19T08:15:30.334Z,103318.34
2022-12-19T08:17:58.317Z,103323.66
2022-12-19T08:20:26.297Z,103320.28
2022-12-19T08:22:54.235Z,103329.50
2022-12-19T08:25:22.151Z,103328.53
2022-12-19T08:27:50.118Z,103329.38
2022-12-19T08:30:19.221Z,103322.34
2022-12-19T08:32:48.573Z,103317.00
2022-12-19T08:35:16.709Z,103318.81
2022-12-19T08:37:44.685Z,103315.44
2022-12-19T08:40:13.676Z,103328.59
2022-12-19T08:42:41.898Z,103320.16
2022-12-19T08:45:10.726Z,103324.25
2022-12-19T08:47:38.692Z,103325.94
2022-12-19T08:50:09.335Z,103318.63
2022-12-19T08:52:37.295Z,103315.94
2022-12-19T08:55:05.951Z,103316.38
2022-12-19T08:57:33.878Z,103315.59
2022-12-19T09:00:01.811Z,103318.44
2022-12-19T09:02:31.187Z,103318.00
2022-12-19T09:06:05.047Z,103318.78
2022-12-19T09:07:48.556Z,103323.63
2022-12-19T09:10:16.692Z,103321.13
2022-12-19T09:12:45.343Z,103312.97
2022-12-19T09:15:13.716Z,103307.19
2022-12-19T09:17:41.611Z,103302.06
2022-12-19T09:20:11.459Z,103299.22
2022-12-19T09:22:39.388Z,103301.34
2022-12-19T09:25:09.826Z,103291.59
2022-12-19T09:28:01.348Z,103263.91
2022-12-19T09:30:26.463Z,103290.47
2022-12-19T09:32:55.115Z,103286.19
2022-12-19T09:35:28.450Z,103293.38
2022-12-19T09:38:00.331Z,103272.50
2022-12-19T09:40:31.920Z,103278.84
2022-12-19T09:43:09.912Z,103287.06
2022-12-19T09:45:56.647Z,103274.38
2022-12-19T09:48:25.655Z,103270.00
2022-12-19T09:51:09.560Z,103266.81
2022-12-19T09:53:54.484Z,103263.28
2022-12-19T09:56:28.112Z,103253.16
2022-12-19T09:59:03.293Z,103246.41
2022-12-19T10:01:38.921Z,103248.28
2022-12-19T10:04:12.599Z,103232.22
2022-12-19T10:07:12.892Z,103238.13
2022-12-19T10:12:17.617Z,103235.06
2022-12-19T10:12:50.807Z,103236.19
2022-12-19T10:15:27.331Z,103229.91
2022-12-19T10:18:25.686Z,103229.09
2022-12-19T10:21:04.145Z,103205.78
2022-12-19T10:23:51.448Z,103216.19
2022-12-19T10:26:21.777Z,103224.75
2022-12-19T10:29:10.237Z,103225.56
2022-12-19T10:31:43.876Z,103230.66
2022-12-19T10:34:19.890Z,103229.06
2022-12-19T10:39:53.008Z,103210.38
2022-12-19T10:42:31.513Z,103193.16
2022-12-19T10:45:02.815Z,103225.41
2022-12-19T10:47:31.184Z,103212.06
2022-12-19T10:50:05.464Z,103215.09
2022-12-19T10:52:52.283Z,103213.03
2022-12-19T10:55:38.916Z,103207.19
2022-12-19T10:58:21.539Z,103201.69
2022-12-19T11:01:07.174Z,103201.00
2022-12-19T11:03:36.114Z,103193.50
2022-12-19T11:06:05.421Z,103202.69
2022-12-19T11:08:34.598Z,103192.13
2022-12-19T11:13:30.091Z,103174.69
2022-12-19T11:19:28.584Z,103193.81
2022-12-19T11:29:44.288Z,103212.75
2022-12-19T11:29:45.691Z,103199.88
2022-12-19T11:30:45.319Z,103190.66
2022-12-19T11:30:45.723Z,103201.00
2022-12-19T11:34:30.026Z,103195.28
2022-12-19T11:37:02.469Z,103202.53
2022-12-19T11:39:36.488Z,103206.22
2022-12-19T11:42:12.577Z,103204.44
2022-12-19T11:44:46.662Z,103196.50
2022-12-19T11:47:28.387Z,103195.88
2022-12-19T11:50:02.610Z,103197.53
2022-12-19T11:55:37.572Z,103205.66
2022-12-19T11:58:05.551Z,103199.50
2022-12-19T12:00:34.945Z,103217.19
2022-12-19T12:03:35.342Z,103202.09
2022-12-19T12:06:13.246Z,103205.78
2022-12-19T12:11:02.876Z,103216.16
2022-12-19T12:22:32.925Z,103206.53
2022-12-19T12:25:09.713Z,103208.88
2022-12-19T12:31:10.131Z,103206.88
2022-12-19T12:31:16.334Z,103198.97
2022-12-19T12:31:52.359Z,103211.94
2022-12-19T12:31:53.071Z,103192.53
2022-12-19T12:31:57.249Z,103202.41
2022-12-19T12:33:05.031Z,103209.78
2022-12-19T12:39:02.206Z,103213.13
2022-12-19T12:42:02.181Z,103186.31
2022-12-19T12:44:35.454Z,103212.56
2022-12-19T12:47:14.444Z,103196.34
2022-12-19T12:49:46.667Z,103209.50
2022-12-19T12:52:19.181Z,103213.66
2022-12-19T12:54:50.291Z,103194.03
2022-12-19T12:57:37.591Z,103212.88
2022-12-19T13:00:24.951Z,103205.09
2022-12-19T13:02:57.263Z,103214.28
2022-12-19T13:05:39.621Z,103209.47
2022-12-19T13:08:29.185Z,103207.88
2022-12-19T13:11:00.306Z,103218.25
2022-12-19T13:13:51.455Z,103223.63
2022-12-19T13:16:52.985Z,103221.81
2022-12-19T13:19:28.327Z,103224.34
2022-12-19T13:22:18.690Z,103237.50
2022-12-19T13:24:50.135Z,103220.41
2022-12-19T13:27:38.796Z,103227.56
2022-12-19T13:30:17.361Z,103228.41
2022-12-19T13:33:09.445Z,103225.66
2022-12-19T13:37:04.098Z,103221.59
2022-12-19T13:39:57.475Z,103213.28
2022-12-19T13:41:50.453Z,103217.53
2022-12-19T13:44:23.064Z,103198.09
2022-12-19T13:46:51.244Z,103219.69
2022-12-19T13:49:25.089Z,103217.19
2022-12-19T13:51:57.620Z,103210.34
2022-12-19T13:54:29.181Z,103210.97
2022-12-19T13:57:09.247Z,103214.88
2022-12-19T13:59:54.385Z,103217.22
2022-12-19T14:02:32.900Z,103221.81
2022-12-19T14:05:32.834Z,103217.38
2022-12-19T14:08:17.130Z,103214.69
2022-12-19T14:11:40.735Z,103224.06
2022-12-19T14:14:08.485Z,103201.91
2022-12-19T14:16:45.754Z,103213.28
2022-12-19T14:19:24.901Z,103226.22
2022-12-19T14:22:07.037Z,103218.56
2022-12-19T14:24:41.882Z,103232.25
2022-12-19T14:28:26.197Z,103240.13
2022-12-19T14:30:30.752Z,103236.97
2022-12-19T14:33:46.020Z,103239.53
2022-12-19T14:36:09.964Z,103245.38
2022-12-19T14:39:21.975Z,103246.56
2022-12-19T14:42:01.464Z,103241.19
2022-12-19T14:52:35.170Z,103248.31
2022-12-19T14:53:52.316Z,103243.91
2022-12-19T14:54:08.150Z,103242.25
2022-12-19T14:54:22.086Z,103234.41
2022-12-19T14:59:03.012Z,103249.53
2022-12-19T15:01:33.405Z,103238.31
2022-12-19T15:04:51.294Z,103248.63
2022-12-19T15:07:06.945Z,103250.28
2022-12-19T15:11:04.092Z,103248.63
2022-12-19T15:14:51.282Z,103248.88
2022-12-19T15:16:03.803Z,103242.28
2022-12-19T15:18:41.156Z,103245.81
2022-12-19T15:21:12.607Z,103251.03
2022-12-19T15:23:42.226Z,103238.16
2022-12-19T15:26:15.434Z,103242.50
2022-12-19T15:28:44.838Z,103249.25
2022-12-19T15:31:24.492Z,103244.03
2022-12-19T15:34:33.622Z,103245.25
2022-12-19T15:36:40.476Z,103247.13
2022-12-19T15:39:09.832Z,103256.56
2022-12-19T15:41:37.946Z,103260.94
2022-12-19T15:44:09.772Z,103252.78
2022-12-19T15:46:41.379Z,103251.16
2022-12-19T15:49:16.226Z,103246.59
2022-12-19T15:51:44.146Z,103247.41
2022-12-19T15:57:01.406Z,103258.75
2022-12-19T15:59:38.087Z,103260.16
2022-12-19T16:02:16.873Z,103267.84
2022-12-19T16:04:45.595Z,103259.34
2022-12-19T16:07:16.925Z,103262.91
2022-12-19T16:09:46.834Z,103272.94
2022-12-19T16:12:17.042Z,103268.84
2022-12-19T16:14:45.330Z,103271.59
2022-12-19T16:17:22.532Z,103274.00
2022-12-19T16:19:50.733Z,103265.28
2022-12-19T16:22:21.178Z,103280.75
2022-12-19T16:24:50.698Z,103283.31
2022-12-19T16:27:25.354Z,103272.38
2022-12-19T16:29:54.426Z,103276.50
2022-12-19T16:32:24.508Z,103283.91
2022-12-19T16:34:53.522Z,103275.59
2022-12-19T16:37:23.568Z,103274.28
2022-12-19T16:39:56.630Z,103273.41
2022-12-19T16:42:24.546Z,103288.47
2022-12-19T16:44:53.646Z,103268.84
2022-12-19T16:47:21.661Z,103283.34
2022-12-19T16:49:50.030Z,103288.41
2022-12-19T16:52:17.987Z,103281.53
2022-12-19T16:54:45.983Z,103284.69
2022-12-19T16:57:21.210Z,103290.91
2022-12-19T16:59:49.733Z,103287.84
2022-12-19T17:02:43.312Z,103289.09
2022-12-19T17:05:20.010Z,103280.25
2022-12-19T17:07:49.208Z,103289.09
2022-12-19T17:10:24.225Z,103270.84
2022-12-19T17:12:55.746Z,103286.50
2022-12-19T17:15:27.599Z,103280.53
2022-12-19T17:17:58.296Z,103282.34
2022-12-19T17:20:29.668Z,103274.88
2022-12-19T17:22:57.864Z,103278.28
2022-12-19T17:25:28.140Z,103284.22
2022-12-19T17:27:57.714Z,103279.00
2022-12-19T17:30:25.772Z,103291.47
2022-12-19T17:32:56.178Z,103295.31
2022-12-19T17:35:28.261Z,103291.28
2022-12-19T17:37:58.164Z,103288.88
2022-12-19T17:40:28.212Z,103295.59
2022-12-19T17:42:58.614Z,103289.28
2022-12-19T17:45:27.664Z,103291.94
2022-12-19T17:48:02.236Z,103298.63
2022-12-19T17:50:33.315Z,103290.09
2022-12-19T17:53:01.260Z,103298.25
2022-12-19T17:55:30.880Z,103300.41
2022-12-19T17:58:00.543Z,103302.78
2022-12-19T18:00:31.234Z,103281.44
2022-12-19T18:03:04.973Z,103297.72
2022-12-19T18:05:36.015Z,103288.78
2022-12-19T18:08:04.849Z,103297.50
2022-12-19T18:10:33.522Z,103291.50
2022-12-19T18:13:02.830Z,103300.50
2022-12-19T18:15:30.781Z,103303.09
2022-12-19T18:17:58.911Z,103310.09
2022-12-19T18:20:31.870Z,103300.16
2022-12-19T18:23:01.310Z,103312.84
2022-12-19T18:25:31.009Z,103311.56
2022-12-19T18:27:59.553Z,103315.63
2022-12-19T18:30:28.956Z,103309.06
2022-12-19T18:32:59.437Z,103302.44
2022-12-19T18:35:34.847Z,103299.00
2022-12-19T18:38:05.995Z,103293.59
2022-12-19T18:40:34.331Z,103300.50
2022-12-19T18:43:02.349Z,103308.09
2022-12-19T18:45:37.305Z,103294.53
2022-12-19T18:48:08.569Z,103292.75
2022-12-19T18:50:36.527Z,103294.84
2022-12-19T18:53:10.922Z,103289.91
2022-12-19T18:55:38.687Z,103293.00
2022-12-19T18:58:06.760Z,103290.88
2022-12-19T19:00:36.676Z,103301.78
2022-12-19T19:03:07.103Z,103303.94
2022-12-19T19:05:37.158Z,103295.41
2022-12-19T19:08:15.901Z,103298.94
2022-12-19T19:10:44.472Z,103293.16
2022-12-19T19:13:12.414Z,103303.28
2022-12-19T19:15:47.137Z,103304.38
2022-12-19T19:18:16.006Z,103296.72
2022-12-19T19:20:46.057Z,103299.34
2022-12-19T19:23:15.334Z,103303.41
2022-12-19T19:25:43.542Z,103296.56
2022-12-19T19:28:11.469Z,103299.06
2022-12-19T19:30:42.269Z,103296.25
2022-12-19T19:33:14.175Z,103291.28
2022-12-19T19:35:45.226Z,103301.03
2022-12-19T19:38:14.528Z,103293.94
2022-12-19T19:40:43.441Z,103290.66
2022-12-19T19:43:11.415Z,103289.28
2022-12-19T19:45:43.132Z,103300.81
2022-12-19T19:48:13.027Z,103291.81
2022-12-19T19:50:41.162Z,103290.50
2022-12-19T19:53:09.267Z,103301.84
2022-12-19T19:55:37.177Z,103304.34
2022-12-19T19:58:05.334Z,103296.59
2022-12-19T20:00:33.250Z,103297.66
2022-12-19T20:03:06.331Z,103288.59
2022-12-19T20:05:37.881Z,103297.28
2022-12-19T20:08:06.574Z,103300.41
2022-12-19T20:10:34.498Z,103302.56
2022-12-19T20:13:02.450Z,103297.78
2022-12-19T20:15:30.799Z,103293.44
2022-12-19T20:17:59.852Z,103299.34
2022-12-19T20:20:27.786Z,103289.84
2022-12-19T20:22:57.092Z,103284.72
2022-12-19T20:25:25.035Z,103291.97
2022-12-19T20:27:52.953Z,103296.31
2022-12-19T20:30:20.939Z,103286.00
2022-12-19T20:32:48.864Z,103295.00
2022-12-19T20:35:17.301Z,103301.25
2022-12-19T20:37:45.261Z,103300.22
2022-12-19T20:40:14.772Z,103299.22
2022-12-19T20:42:42.700Z,103302.16
2022-12-19T20:45:11.091Z,103293.88
2022-12-19T20:47:39.030Z,103294.19
2022-12-19T20:50:08.190Z,103298.59
2022-12-19T20:52:36.196Z,103294.78
2022-12-19T20:55:04.117Z,103295.56
2022-12-19T20:57:33.429Z,103290.66
2022-12-19T21:00:01.352Z,103290.56
2022-12-19T21:02:41.030Z,103285.13
2022-12-19T21:05:17.555Z,103285.19
2022-12-19T21:07:45.627Z,103276.78
2022-12-19T21:10:14.004Z,103273.03
2022-12-19T21:12:47.583Z,103271.44
2022-12-19T21:15:16.281Z,103261.16
2022-12-19T21:17:44.240Z,103267.00
2022-12-19T21:20:13.321Z,103258.75
2022-12-19T21:22:41.268Z,103283.53
2022-12-19T21:25:10.030Z,103282.59
2022-12-19T21:27:37.979Z,103266.34
2022-12-19T21:30:08.879Z,103271.59
2022-12-19T21:32:36.848Z,103273.88
2022-12-19T21:35:05.160Z,103274.38
2022-12-19T21:37:37.055Z,103271.06
2022-12-19T21:40:09.879Z,103273.59
2022-12-19T21:42:37.802Z,103268.53
2022-12-19T21:45:08.085Z,103266.50
2022-12-19T21:47:39.374Z,103267.78
2022-12-19T21:50:08.794Z,103265.78
2022-12-19T21:52:36.764Z,103251.66
2022-12-19T21:55:05.068Z,103259.56
2022-12-19T21:57:33.005Z,103251.91
2022-12-19T22:00:00.928Z,103255.28
2022-12-19T22:02:30.327Z,103262.38
2022-12-19T22:04:58.335Z,103262.47
2022-12-19T22:07:26.299Z,103244.44
2022-12-19T22:09:54.263Z,103254.03
2022-12-19T22:12:22.353Z,103245.88
2022-12-19T22:14:50.421Z,103255.44
2022-12-19T22:17:18.367Z,103252.16
2022-12-19T22:19:47.810Z,103253.28
2022-12-19T22:22:15.737Z,103247.19
2022-12-19T22:24:43.658Z,103242.25
2022-12-19T22:27:11.572Z,103241.47
2022-12-19T22:29:39.742Z,103239.06
2022-12-19T22:32:07.720Z,103245.91
2022-12-19T22:34:35.743Z,103213.66
2022-12-19T22:37:05.124Z,103228.31
2022-12-19T22:39:33.093Z,103246.59
2022-12-19T22:42:01.031Z,103234.38
2022-12-19T22:44:28.979Z,103221.72
2022-12-19T22:46:56.938Z,103201.91
2022-12-19T22:49:24.847Z,103228.84
2022-12-19T22:51:52.768Z,103228.91
2022-12-19T22:54:22.172Z,103233.84
2022-12-19T22:56:51.416Z,103238.31
2022-12-19T22:59:19.323Z,103220.53
2022-12-19T23:01:47.343Z,103231.09
2022-12-19T23:04:17.609Z,103222.28
2022-12-19T23:06:45.889Z,103224.00
2022-12-19T23:09:16.129Z,103233.50
2022-12-19T23:11:47.339Z,103230.75
2022-12-19T23:14:18.389Z,103229.84
2022-12-19T23:16:46.577Z,103218.91
2022-12-19T23:19:15.980Z,103215.09
2022-12-19T23:21:44.043Z,103213.50
2022-12-19T23:24:12.956Z,103217.06
2022-12-19T23:26:41.032Z,103210.44
2022-12-19T23:29:12.932Z,103210.53
2022-12-19T23:31:42.155Z,103206.19
2022-12-19T23:34:10.635Z,103208.25
2022-12-19T23:37:09.730Z,103176.22
2022-12-19T23:39:26.927Z,103189.56
2022-12-19T23:41:54.837Z,103204.75
2022-12-19T23:44:24.372Z,103206.50
2022-12-19T23:46:53.214Z,103212.47
2022-12-19T23:49:22.517Z,103212.31
2022-12-19T23:51:50.451Z,103207.59
2022-12-19T23:54:18.363Z,103216.34
2022-12-19T23:56:46.285Z,103205.88
2022-12-19T23:59:14.236Z,103208.59
